createdAt,value
2022-09-16T00:04:05.092Z,100.00
2022-09-16T00:09:07.897Z,100.00
2022-09-16T00:14:10.726Z,100.00
2022-09-16T00:19:13.555Z,100.00
2022-09-16T00:24:16.968Z,100.00
2022-09-16T00:29:20.741Z,100.00
2022-09-16T00:34:23.592Z,100.00
2022-09-16T00:39:26.401Z,100.00
2022-09-16T00:44:56.087Z,100.00
2022-09-16T00:50:13.721Z,100.00
2022-09-16T00:55:21.651Z,100.00
2022-09-16T01:00:24.416Z,100.00
2022-09-16T01:05:28.323Z,100.00
2022-09-16T01:10:31.878Z,100.00
2022-09-16T01:16:01.422Z,100.00
2022-09-16T01:21:18.549Z,100.00
2022-09-16T01:27:09.100Z,100.00
2022-09-16T01:32:35.454Z,100.00
2022-09-16T01:37:53.111Z,100.00
2022-09-16T01:43:08.586Z,100.00
2022-09-16T01:48:31.404Z,100.00
2022-09-16T01:53:55.124Z,100.00
2022-09-16T01:59:08.436Z,100.00
2022-09-16T02:04:17.954Z,100.00
2022-09-16T02:09:26.281Z,100.00
2022-09-16T02:14:32.141Z,100.00
2022-09-16T02:19:59.286Z,100.00
2022-09-16T02:25:05.184Z,100.00
2022-09-16T02:30:11.379Z,100.00
2022-09-16T02:35:19.161Z,100.00
2022-09-16T02:40:31.905Z,100.00
2022-09-16T02:46:11.015Z,100.00
2022-09-16T02:51:50.034Z,100.00
2022-09-16T02:56:55.703Z,100.00
2022-09-16T03:02:01.196Z,100.00
2022-09-16T03:07:08.044Z,100.00
2022-09-16T03:12:20.053Z,100.00
2022-09-16T03:17:47.206Z,100.00
2022-09-16T03:23:12.987Z,100.00
2022-09-16T03:28:24.305Z,100.00
2022-09-16T03:33:39.969Z,100.00
2022-09-16T03:38:44.119Z,100.00
2022-09-16T03:43:55.076Z,100.00
2022-09-16T03:48:58.897Z,100.00
2022-09-16T03:54:01.801Z,100.00
2022-09-16T03:59:04.579Z,100.00
2022-09-16T04:04:07.740Z,100.00
2022-09-16T04:09:12.521Z,100.00
2022-09-16T04:14:15.788Z,100.00
2022-09-16T04:19:19.014Z,100.00
2022-09-16T04:24:21.704Z,100.00
2022-09-16T04:29:24.504Z,100.00
2022-09-16T04:34:27.324Z,100.00
2022-09-16T04:39:30.476Z,100.00
2022-09-16T04:44:33.253Z,100.00
2022-09-16T04:49:36.054Z,100.00
2022-09-16T04:54:38.889Z,100.00
2022-09-16T04:59:41.670Z,100.00
2022-09-16T05:04:44.792Z,100.00
2022-09-16T05:09:47.645Z,100.00
2022-09-16T05:14:50.419Z,100.00
2022-09-16T05:19:53.239Z,100.00
2022-09-16T05:24:56.017Z,100.00
2022-09-16T05:29:58.878Z,100.00
2022-09-16T05:35:01.710Z,100.00
2022-09-16T05:40:04.960Z,100.00
2022-09-16T05:45:07.887Z,100.00
2022-09-16T05:50:16.557Z,100.00
2022-09-16T05:55:21.678Z,100.00
2022-09-16T06:00:32.516Z,100.00
2022-09-16T06:05:35.318Z,100.00
2022-09-16T06:10:40.325Z,100.00
2022-09-16T06:15:51.548Z,100.00
2022-09-16T06:20:54.804Z,100.00
2022-09-16T06:26:06.119Z,100.00
2022-09-16T06:31:22.236Z,100.00
2022-09-16T06:36:31.070Z,100.00
2022-09-16T06:41:34.818Z,100.00
2022-09-16T06:46:37.740Z,99.77
2022-09-16T06:51:40.672Z,99.44
2022-09-16T06:56:43.827Z,98.75
2022-09-16T07:01:46.664Z,98.23
2022-09-16T07:07:08.828Z,97.47
2022-09-16T07:12:19.377Z,97.78
2022-09-16T07:17:26.143Z,97.16
2022-09-16T07:22:32.461Z,94.10
2022-09-16T07:27:35.322Z,91.91
2022-09-16T07:32:38.644Z,92.13
2022-09-16T07:37:42.728Z,88.43
2022-09-16T07:42:46.636Z,87.76
2022-09-16T07:47:53.305Z,85.25
2022-09-16T07:52:56.950Z,84.76
2022-09-16T07:57:59.846Z,83.79
2022-09-16T08:03:02.748Z,84.08
2022-09-16T08:08:05.740Z,81.20
2022-09-16T08:13:09.065Z,78.46
2022-09-16T08:18:11.873Z,76.12
2022-09-16T08:23:14.797Z,77.73
2022-09-16T08:28:17.769Z,76.90
2022-09-16T08:33:23.210Z,75.87
2022-09-16T08:38:26.546Z,75.48
2022-09-16T08:43:38.377Z,74.17
2022-09-16T08:49:03.546Z,73.84
2022-09-16T08:54:47.026Z,73.77
2022-09-16T08:59:58.647Z,74.70
2022-09-16T09:05:03.778Z,74.10
2022-09-16T09:10:25.033Z,72.56
2022-09-16T09:16:00.981Z,70.06
2022-09-16T09:21:20.155Z,70.22
2022-09-16T09:26:38.016Z,67.70
2022-09-16T09:31:41.430Z,67.53
2022-09-16T09:36:44.323Z,66.72
2022-09-16T09:41:51.552Z,65.99
2022-09-16T09:47:05.593Z,63.98
2022-09-16T09:52:24.246Z,64.00
2022-09-16T09:57:51.799Z,64.15
2022-09-16T10:03:21.529Z,63.79
2022-09-16T10:08:44.783Z,64.84
2022-09-16T10:19:25.829Z,62.90
2022-09-16T10:24:45.767Z,62.41
2022-09-16T10:30:12.957Z,62.31
2022-09-16T10:35:42.395Z,62.10
2022-09-16T10:40:58.104Z,60.74
2022-09-16T10:46:04.512Z,60.71
2022-09-16T10:51:24.783Z,60.97
2022-09-16T10:56:46.623Z,59.49
2022-09-16T11:02:37.567Z,59.06
2022-09-16T11:07:56.161Z,59.50
2022-09-16T11:13:08.117Z,59.90
2022-09-16T11:18:26.383Z,59.64
2022-09-16T11:23:43.031Z,58.99
2022-09-16T11:29:26.753Z,58.75
2022-09-16T11:34:50.732Z,59.04
2022-09-16T11:40:00.079Z,58.03
2022-09-16T11:45:40.356Z,58.68
2022-09-16T11:50:53.039Z,57.47
2022-09-16T11:56:09.386Z,56.68
2022-09-16T12:01:26.387Z,56.48
2022-09-16T12:06:37.080Z,57.25
2022-09-16T12:11:46.007Z,56.58
2022-09-16T12:16:48.802Z,56.55
2022-09-16T12:21:58.428Z,56.76
2022-09-16T12:27:07.305Z,57.17
2022-09-16T12:32:15.902Z,58.19
2022-09-16T12:37:46.032Z,59.00
2022-09-16T12:43:08.005Z,59.56
2022-09-16T12:48:17.084Z,60.32
2022-09-16T12:53:52.061Z,61.12
2022-09-16T12:59:25.680Z,61.71
2022-09-16T13:04:39.390Z,60.88
2022-09-16T13:09:50.358Z,60.56
2022-09-16T13:14:57.084Z,59.46
2022-09-16T13:20:15.589Z,59.35
2022-09-16T13:25:33.639Z,58.80
2022-09-16T13:30:38.463Z,57.57
2022-09-16T13:35:43.859Z,56.53
2022-09-16T13:41:01.787Z,57.22
2022-09-16T13:46:18.728Z,55.55
2022-09-16T13:51:22.964Z,54.51
2022-09-16T13:56:34.087Z,55.00
2022-09-16T14:02:09.428Z,53.89
2022-09-16T14:07:31.114Z,54.43
2022-09-16T14:12:39.862Z,54.27
2022-09-16T14:17:51.121Z,53.59
2022-09-16T14:23:15.703Z,52.38
2022-09-16T14:28:27.912Z,51.06
2022-09-16T14:33:35.986Z,49.63
2022-09-16T14:39:14.581Z,46.49
2022-09-16T14:44:22.813Z,43.41
2022-09-16T14:49:26.144Z,43.56
2022-09-16T14:54:29.512Z,43.29
2022-09-16T14:59:38.462Z,45.53
2022-09-16T15:04:46.876Z,46.57
2022-09-16T15:09:58.792Z,47.56
2022-09-16T15:15:10.533Z,48.45
2022-09-16T15:20:22.899Z,50.31
2022-09-16T15:25:30.027Z,51.92
2022-09-16T15:30:33.337Z,53.17
2022-09-16T15:35:36.244Z,54.40
2022-09-16T15:40:39.937Z,55.01
2022-09-16T15:45:44.861Z,54.97
2022-09-16T15:50:54.645Z,53.94
2022-09-16T15:56:00.314Z,51.83
2022-09-16T16:01:03.369Z,50.86
2022-09-16T16:06:06.589Z,52.20
2022-09-16T16:11:12.713Z,52.98
2022-09-16T16:16:16.752Z,53.67
2022-09-16T16:21:21.323Z,54.89
2022-09-16T16:26:24.723Z,56.21
2022-09-16T16:31:27.944Z,57.36
2022-09-16T16:36:30.810Z,57.96
2022-09-16T16:41:33.570Z,58.92
2022-09-16T16:46:36.426Z,59.39
2022-09-16T16:51:39.234Z,60.31
2022-09-16T16:56:42.548Z,61.06
2022-09-16T17:01:49.006Z,61.86
2022-09-16T17:07:14.436Z,62.28
2022-09-16T17:12:14.909Z,63.14
2022-09-16T17:17:18.044Z,63.65
2022-09-16T17:22:20.755Z,64.15
2022-09-16T17:27:27.002Z,64.83
2022-09-16T17:32:29.766Z,65.68
2022-09-16T17:37:32.636Z,66.18
2022-09-16T17:42:35.460Z,66.73
2022-09-16T17:47:38.422Z,67.66
2022-09-16T17:52:41.402Z,68.24
2022-09-16T17:57:44.095Z,68.76
2022-09-16T18:02:46.910Z,69.73
2022-09-16T18:07:49.748Z,70.11
2022-09-16T18:12:52.817Z,70.79
2022-09-16T18:17:56.263Z,71.37
2022-09-16T18:22:59.094Z,71.69
2022-09-16T18:28:01.903Z,71.79
2022-09-16T18:33:04.777Z,71.76
2022-09-16T18:38:11.441Z,72.03
2022-09-16T18:43:14.343Z,72.52
2022-09-16T18:48:17.082Z,72.85
2022-09-16T18:53:19.852Z,73.32
2022-09-16T18:58:22.860Z,73.95
2022-09-16T19:03:25.677Z,73.57
2022-09-16T19:08:28.454Z,73.56
2022-09-16T19:13:33.767Z,73.84
2022-09-16T19:18:38.561Z,74.24
2022-09-16T19:23:43.475Z,74.59
2022-09-16T19:28:46.323Z,74.81
2022-09-16T19:33:49.475Z,75.25
2022-09-16T19:38:52.612Z,75.65
2022-09-16T19:44:05.839Z,76.03
2022-09-16T19:49:13.990Z,76.24
2022-09-16T19:54:17.975Z,76.60
2022-09-16T19:59:21.583Z,76.83
2022-09-16T20:04:24.730Z,77.14
2022-09-16T20:09:27.364Z,77.19
2022-09-16T20:14:34.129Z,77.50
2022-09-16T20:19:36.911Z,77.72
2022-09-16T20:24:39.730Z,77.91
2022-09-16T20:29:42.519Z,78.36
2022-09-16T20:34:45.275Z,79.05
2022-09-16T20:39:48.986Z,79.59
2022-09-16T20:44:51.797Z,79.91
2022-09-16T20:49:54.579Z,80.36
2022-09-16T20:54:57.430Z,80.78
2022-09-16T21:00:00.233Z,80.52
2022-09-16T21:05:05.005Z,80.64
2022-09-16T21:10:08.437Z,80.74
2022-09-16T21:15:12.136Z,81.05
2022-09-16T21:20:14.983Z,81.39
2022-09-16T21:25:17.747Z,81.46
2022-09-16T21:30:20.626Z,81.76
2022-09-16T21:35:23.452Z,82.06
2022-09-16T21:40:26.244Z,82.34
2022-09-16T21:45:29.092Z,82.59
2022-09-16T21:50:31.929Z,82.93
2022-09-16T21:55:34.700Z,82.97
2022-09-16T22:00:40.879Z,83.05
2022-09-16T22:05:43.705Z,82.81
2022-09-16T22:10:46.475Z,82.74
2022-09-16T22:15:52.511Z,82.84
2022-09-16T22:20:58.226Z,82.97
2022-09-16T22:26:06.428Z,83.12
2022-09-16T22:31:15.858Z,83.26
2022-09-16T22:36:21.190Z,83.22
2022-09-16T22:41:25.507Z,83.35
2022-09-16T22:46:31.322Z,82.97
2022-09-16T22:51:34.288Z,82.48
2022-09-16T22:56:37.117Z,82.38
2022-09-16T23:01:40.396Z,82.40
2022-09-16T23:06:43.371Z,82.79
2022-09-16T23:11:46.157Z,83.08
2022-09-16T23:16:49.244Z,83.21
2022-09-16T23:21:51.916Z,83.54
2022-09-16T23:26:54.749Z,83.85
2022-09-16T23:31:57.872Z,83.92
2022-09-16T23:37:00.693Z,84.01
2022-09-16T23:42:03.723Z,84.02
2022-09-16T23:47:07.078Z,83.85
2022-09-16T23:52:10.571Z,83.60
2022-09-16T23:57:13.375Z,83.32
